createdAt,value
2022-07-28T00:02:25.946Z,16.50
2022-07-28T00:05:12.310Z,16.50
2022-07-28T00:07:58.295Z,16.50
2022-07-28T00:10:44.406Z,16.50
2022-07-28T00:13:34.290Z,16.40
2022-07-28T00:16:20.496Z,16.40
2022-07-28T00:19:06.928Z,16.40
2022-07-28T00:21:53.338Z,16.40
2022-07-28T00:24:39.558Z,16.40
2022-07-28T00:27:25.560Z,16.40
2022-07-28T00:30:12.918Z,16.30
2022-07-28T00:32:59.519Z,16.30
2022-07-28T00:35:48.429Z,16.30
2022-07-28T00:38:35.534Z,16.30
2022-07-28T00:41:23.027Z,16.20
2022-07-28T00:44:09.368Z,16.20
2022-07-28T00:46:55.877Z,16.10
2022-07-28T00:49:44.653Z,16.10
2022-07-28T00:52:30.799Z,16.00
2022-07-28T00:55:18.127Z,16.00
2022-07-28T00:58:04.526Z,15.90
2022-07-28T01:00:50.325Z,15.90
2022-07-28T01:03:40.193Z,15.90
2022-07-28T01:06:35.469Z,15.80
2022-07-28T01:09:51.186Z,15.80
2022-07-28T01:12:58.711Z,15.80
2022-07-28T01:15:54.375Z,15.80
2022-07-28T01:18:49.894Z,15.80
2022-07-28T01:21:37.910Z,15.80
2022-07-28T01:24:33.748Z,15.90
2022-07-28T01:27:38.088Z,15.90
2022-07-28T01:30:43.383Z,15.90
2022-07-28T01:33:35.138Z,15.90
2022-07-28T01:36:31.460Z,15.90
2022-07-28T01:39:18.827Z,15.90
2022-07-28T01:42:06.796Z,15.90
2022-07-28T01:44:54.240Z,16.00
2022-07-28T01:47:43.176Z,16.00
2022-07-28T01:50:31.174Z,16.00
2022-07-28T01:53:17.967Z,16.00
2022-07-28T01:56:05.025Z,16.00
2022-07-28T01:58:52.837Z,16.00
2022-07-28T02:01:45.431Z,16.00
2022-07-28T02:04:33.362Z,16.00
2022-07-28T02:07:22.366Z,16.00
2022-07-28T02:10:09.837Z,16.00
2022-07-28T02:12:57.656Z,16.10
2022-07-28T02:15:44.921Z,16.00
2022-07-28T02:18:33.744Z,16.10
2022-07-28T02:21:22.523Z,16.10
2022-07-28T02:24:10.607Z,16.10
2022-07-28T02:27:08.823Z,16.10
2022-07-28T02:30:23.113Z,16.10
2022-07-28T02:33:16.953Z,16.10
2022-07-28T02:36:17.628Z,16.10
2022-07-28T02:39:17.908Z,16.10
2022-07-28T02:42:13.523Z,16.10
2022-07-28T02:45:03.224Z,16.10
2022-07-28T02:47:53.861Z,16.10
2022-07-28T02:50:42.910Z,16.10
2022-07-28T02:53:30.147Z,16.00
2022-07-28T02:56:18.246Z,16.00
2022-07-28T02:59:04.871Z,16.00
2022-07-28T03:01:52.057Z,16.00
2022-07-28T03:04:59.028Z,16.00
2022-07-28T03:07:50.387Z,16.00
2022-07-28T03:10:37.649Z,16.00
2022-07-28T03:13:23.689Z,16.00
2022-07-28T03:16:09.647Z,16.00
2022-07-28T03:18:56.389Z,16.00
2022-07-28T03:21:42.568Z,16.00
2022-07-28T03:24:32.434Z,16.00
2022-07-28T03:27:39.879Z,16.00
2022-07-28T03:30:31.624Z,16.10
2022-07-28T03:33:19.017Z,16.10
2022-07-28T03:36:16.741Z,16.10
2022-07-28T03:39:06.333Z,16.10
2022-07-28T03:41:54.096Z,16.00
2022-07-28T03:44:42.448Z,16.00
2022-07-28T03:47:28.472Z,16.00
2022-07-28T03:50:14.567Z,16.00
2022-07-28T03:53:04.626Z,16.00
2022-07-28T03:55:51.191Z,16.00
2022-07-28T03:58:37.697Z,15.90
2022-07-28T04:01:23.772Z,15.90
2022-07-28T04:04:10.150Z,15.90
2022-07-28T04:06:56.289Z,15.90
2022-07-28T04:09:42.875Z,15.80
2022-07-28T04:12:52.135Z,15.80
2022-07-28T04:15:38.470Z,15.80
2022-07-28T04:18:24.825Z,15.80
2022-07-28T04:21:10.777Z,15.80
2022-07-28T04:24:01.663Z,15.80
2022-07-28T04:26:48.180Z,15.80
2022-07-28T04:29:34.104Z,15.80
2022-07-28T04:32:20.022Z,15.70
2022-07-28T04:35:07.894Z,15.70
2022-07-28T04:37:58.605Z,15.70
2022-07-28T04:40:45.158Z,15.70
2022-07-28T04:43:31.945Z,15.70
2022-07-28T04:46:18.056Z,15.70
2022-07-28T04:49:04.249Z,15.70
2022-07-28T04:51:52.383Z,15.70
2022-07-28T04:54:39.449Z,15.70
2022-07-28T04:57:28.945Z,15.80
2022-07-28T05:00:15.888Z,15.80
2022-07-28T05:03:02.652Z,15.70
2022-07-28T05:05:54.493Z,15.70
2022-07-28T05:08:41.148Z,15.70
2022-07-28T05:11:27.618Z,15.70
2022-07-28T05:14:14.064Z,15.70
2022-07-28T05:17:00.456Z,15.80
2022-07-28T05:19:47.122Z,15.70
2022-07-28T05:22:49.012Z,15.70
2022-07-28T05:25:37.209Z,15.70
2022-07-28T05:28:24.591Z,15.80
2022-07-28T05:31:10.760Z,15.80
2022-07-28T05:33:57.126Z,15.80
2022-07-28T05:36:43.357Z,15.80
2022-07-28T05:39:33.060Z,15.80
2022-07-28T05:42:19.522Z,15.80
2022-07-28T05:45:15.021Z,15.80
2022-07-28T05:48:03.065Z,15.80
2022-07-28T05:50:50.200Z,15.80
2022-07-28T05:53:36.263Z,15.90
2022-07-28T05:56:23.066Z,15.90
2022-07-28T05:59:10.254Z,16.00
2022-07-28T06:01:56.266Z,16.10
2022-07-28T06:04:42.460Z,16.10
2022-07-28T06:07:42.627Z,16.20
2022-07-28T06:10:50.571Z,16.40
2022-07-28T06:13:38.158Z,16.50
2022-07-28T06:16:24.233Z,16.60
2022-07-28T06:19:10.174Z,16.70
2022-07-28T06:21:56.451Z,16.80
2022-07-28T06:24:42.880Z,17.00
2022-07-28T06:27:29.431Z,17.10
2022-07-28T06:30:16.411Z,17.20
2022-07-28T06:33:02.357Z,17.40
2022-07-28T06:35:51.550Z,17.50
2022-07-28T06:38:37.923Z,17.70
2022-07-28T06:41:23.881Z,17.80
2022-07-28T06:44:12.222Z,17.90
2022-07-28T06:46:58.854Z,18.00
2022-07-28T06:49:45.338Z,18.10
2022-07-28T06:52:32.644Z,18.20
2022-07-28T06:55:18.669Z,18.30
2022-07-28T06:58:05.250Z,18.30
2022-07-28T07:00:51.566Z,18.40
2022-07-28T07:03:38.154Z,18.50
2022-07-28T07:06:24.339Z,18.60
2022-07-28T07:09:10.316Z,18.70
2022-07-28T07:11:56.328Z,18.80
2022-07-28T07:14:46.301Z,18.90
2022-07-28T07:17:32.567Z,19.00
2022-07-28T07:20:18.970Z,19.10
2022-07-28T07:23:05.100Z,19.20
2022-07-28T07:25:54.425Z,19.30
2022-07-28T07:28:42.274Z,19.40
2022-07-28T07:31:28.656Z,19.40
2022-07-28T07:34:16.566Z,19.40
2022-07-28T07:37:02.858Z,19.50
2022-07-28T07:39:48.729Z,19.50
2022-07-28T07:42:35.135Z,19.60
2022-07-28T07:45:21.173Z,19.60
2022-07-28T07:48:07.514Z,19.60
2022-07-28T07:50:54.541Z,19.70
2022-07-28T07:53:40.944Z,19.70
2022-07-28T07:56:26.864Z,19.80
2022-07-28T07:59:12.883Z,19.80
2022-07-28T08:01:59.036Z,19.90
2022-07-28T08:04:45.126Z,19.90
2022-07-28T08:07:34.117Z,20.00
2022-07-28T08:10:25.567Z,20.10
2022-07-28T08:13:12.244Z,20.20
2022-07-28T08:15:59.800Z,20.30
2022-07-28T08:18:45.918Z,20.40
2022-07-28T08:21:34.821Z,20.40
2022-07-28T08:24:32.967Z,20.50
2022-07-28T08:27:20.517Z,20.60
2022-07-28T08:30:07.706Z,20.80
2022-07-28T08:32:56.793Z,20.80
2022-07-28T08:35:44.321Z,20.90
2022-07-28T08:38:34.434Z,20.90
2022-07-28T08:41:26.613Z,21.00
2022-07-28T08:44:25.101Z,21.10
2022-07-28T08:47:12.165Z,21.10
2022-07-28T08:50:01.785Z,21.20
2022-07-28T08:52:51.108Z,21.20
2022-07-28T08:55:38.775Z,21.30
2022-07-28T08:58:24.936Z,21.30
2022-07-28T09:01:11.152Z,21.40
2022-07-28T09:03:57.881Z,21.40
2022-07-28T09:06:44.039Z,21.40
2022-07-28T09:09:30.680Z,21.40
2022-07-28T09:12:17.504Z,21.50
2022-07-28T09:15:09.070Z,21.50
2022-07-28T09:17:55.657Z,21.50
2022-07-28T09:20:43.272Z,21.60
2022-07-28T09:23:46.146Z,21.70
2022-07-28T09:26:32.271Z,21.80
2022-07-28T09:29:24.249Z,21.90
2022-07-28T09:32:16.745Z,22.00
2022-07-28T09:35:02.714Z,22.10
2022-07-28T09:37:59.692Z,22.20
2022-07-28T09:40:59.412Z,22.20
2022-07-28T09:43:49.830Z,22.40
2022-07-28T09:46:40.252Z,22.40
2022-07-28T09:49:43.342Z,22.50
2022-07-28T09:52:35.972Z,22.60
2022-07-28T09:55:22.033Z,22.60
2022-07-28T09:58:09.968Z,22.70
2022-07-28T10:01:04.230Z,22.80
2022-07-28T10:03:53.381Z,22.90
2022-07-28T10:06:40.655Z,23.00
2022-07-28T10:09:27.439Z,23.10
2022-07-28T10:12:22.391Z,23.10
2022-07-28T10:15:35.766Z,23.20
2022-07-28T10:18:22.162Z,23.30
2022-07-28T10:21:09.893Z,23.30
2022-07-28T10:23:59.393Z,23.30
2022-07-28T10:26:46.966Z,23.20
2022-07-28T10:29:33.137Z,23.20
2022-07-28T10:32:19.082Z,23.30
2022-07-28T10:35:08.982Z,23.40
2022-07-28T10:37:58.998Z,23.50
2022-07-28T10:40:47.223Z,23.50
2022-07-28T10:43:33.892Z,23.50
2022-07-28T10:46:20.992Z,23.50
2022-07-28T10:49:09.102Z,23.50
2022-07-28T10:52:08.688Z,23.40
2022-07-28T10:55:20.455Z,23.50
2022-07-28T10:58:19.394Z,23.40
2022-07-28T11:01:26.656Z,23.40
2022-07-28T11:05:03.642Z,23.40
2022-07-28T11:07:50.314Z,23.40
2022-07-28T11:10:51.125Z,23.50
2022-07-28T11:13:41.059Z,23.50
2022-07-28T11:16:31.775Z,23.60
2022-07-28T11:19:40.133Z,23.60
2022-07-28T11:22:29.111Z,23.70
2022-07-28T11:25:20.441Z,23.80
2022-07-28T11:28:07.620Z,23.90
2022-07-28T11:30:55.180Z,23.90
2022-07-28T11:33:57.401Z,23.90
2022-07-28T11:37:02.360Z,23.80
2022-07-28T11:39:48.603Z,23.70
2022-07-28T11:42:35.802Z,23.60
2022-07-28T11:45:35.922Z,23.50
2022-07-28T11:48:25.306Z,23.40
2022-07-28T11:51:13.296Z,23.40
2022-07-28T11:54:00.664Z,23.50
2022-07-28T11:56:58.632Z,23.50
2022-07-28T11:59:51.284Z,23.60
2022-07-28T12:02:40.728Z,23.70
2022-07-28T12:05:26.956Z,23.80
2022-07-28T12:08:20.443Z,23.90
2022-07-28T12:11:06.440Z,24.00
2022-07-28T12:14:03.117Z,24.10
2022-07-28T12:16:52.726Z,24.20
2022-07-28T12:19:39.680Z,24.30
2022-07-28T12:22:26.189Z,24.50
2022-07-28T12:25:13.925Z,24.60
2022-07-28T12:28:20.934Z,24.80
2022-07-28T12:31:14.816Z,24.90
2022-07-28T12:34:01.893Z,25.00
2022-07-28T12:36:48.975Z,25.10
2022-07-28T12:39:38.569Z,25.10
2022-07-28T12:42:32.036Z,25.20
2022-07-28T12:45:19.104Z,25.30
2022-07-28T12:48:08.728Z,25.30
2022-07-28T12:50:54.690Z,25.30
2022-07-28T12:53:52.931Z,25.30
2022-07-28T12:56:46.612Z,25.20
2022-07-28T12:59:38.263Z,25.20
2022-07-28T13:02:37.182Z,25.20
2022-07-28T13:06:00.348Z,25.10
2022-07-28T13:08:47.324Z,25.00
2022-07-28T13:11:49.210Z,25.00
2022-07-28T13:14:39.771Z,25.10
2022-07-28T13:17:31.775Z,25.10
2022-07-28T13:20:18.598Z,25.10
2022-07-28T13:23:04.855Z,25.10
2022-07-28T13:25:52.482Z,25.00
2022-07-28T13:28:39.648Z,24.90
2022-07-28T13:31:26.143Z,24.90
2022-07-28T13:34:12.809Z,24.90
2022-07-28T13:36:59.081Z,24.90
2022-07-28T13:39:50.778Z,24.90
2022-07-28T13:42:40.119Z,25.00
2022-07-28T13:45:39.707Z,25.10
2022-07-28T13:48:26.968Z,25.40
2022-07-28T13:51:14.057Z,25.50
2022-07-28T13:54:00.525Z,25.60
2022-07-28T13:57:07.119Z,25.70
2022-07-28T13:59:53.008Z,25.80
2022-07-28T14:02:44.290Z,25.80
2022-07-28T14:05:31.881Z,25.90
2022-07-28T14:08:19.698Z,26.00
2022-07-28T14:11:05.860Z,26.10
2022-07-28T14:13:54.156Z,26.20
2022-07-28T14:16:41.828Z,26.30
2022-07-28T14:19:39.584Z,26.50
2022-07-28T14:22:26.319Z,26.60
2022-07-28T14:25:19.570Z,26.70
2022-07-28T14:28:07.455Z,26.70
2022-07-28T14:30:53.279Z,26.60
2022-07-28T14:33:44.904Z,26.50
2022-07-28T14:36:32.749Z,26.50
2022-07-28T14:39:19.012Z,26.50
2022-07-28T14:42:06.030Z,26.60
2022-07-28T14:44:52.857Z,26.70
2022-07-28T14:47:44.968Z,26.90
2022-07-28T14:50:32.011Z,27.10
2022-07-28T14:53:22.073Z,27.40
2022-07-28T14:56:13.888Z,27.60
2022-07-28T14:58:59.943Z,27.90
2022-07-28T15:01:48.885Z,27.90
2022-07-28T15:04:35.376Z,27.80
2022-07-28T15:07:21.418Z,27.60
2022-07-28T15:10:07.981Z,27.30
2022-07-28T15:12:54.428Z,26.90
2022-07-28T15:15:44.658Z,26.60
2022-07-28T15:18:31.202Z,26.40
2022-07-28T15:21:17.315Z,26.30
2022-07-28T15:24:04.169Z,26.40
2022-07-28T15:26:50.370Z,26.60
2022-07-28T15:29:36.730Z,26.80
2022-07-28T15:32:28.195Z,26.90
2022-07-28T15:35:14.898Z,26.90
2022-07-28T15:38:01.305Z,26.80
2022-07-28T15:40:48.091Z,26.80
2022-07-28T15:43:36.581Z,26.80
2022-07-28T15:46:22.520Z,26.90
2022-07-28T15:49:10.687Z,26.90
2022-07-28T15:51:57.900Z,26.80
2022-07-28T15:54:44.130Z,26.80
2022-07-28T15:57:37.973Z,26.70
2022-07-28T16:00:24.128Z,26.70
2022-07-28T16:03:11.342Z,26.70
2022-07-28T16:06:00.883Z,26.70
2022-07-28T16:08:47.069Z,27.00
2022-07-28T16:11:34.294Z,27.10
2022-07-28T16:14:20.595Z,27.50
2022-07-28T16:17:06.620Z,27.90
2022-07-28T16:19:53.855Z,28.30
2022-07-28T16:22:41.214Z,28.70
2022-07-28T16:25:27.706Z,29.20
2022-07-28T16:28:14.154Z,29.90
2022-07-28T16:31:00.381Z,30.30
2022-07-28T16:33:46.757Z,30.60
2022-07-28T16:36:32.692Z,31.00
2022-07-28T16:39:18.926Z,31.60
2022-07-28T16:42:05.902Z,32.20
2022-07-28T16:44:51.887Z,32.90
2022-07-28T16:47:37.890Z,33.70
2022-07-28T16:50:24.184Z,34.40
2022-07-28T16:53:10.521Z,35.00
2022-07-28T16:55:56.530Z,34.90
2022-07-28T16:58:45.065Z,34.20
2022-07-28T17:01:31.716Z,34.00
2022-07-28T17:04:19.904Z,34.00
2022-07-28T17:07:06.832Z,33.70
2022-07-28T17:09:52.969Z,33.40
2022-07-28T17:12:40.247Z,33.70
2022-07-28T17:15:26.900Z,34.20
2022-07-28T17:18:12.889Z,34.80
2022-07-28T17:20:58.867Z,35.10
2022-07-28T17:23:45.835Z,34.90
2022-07-28T17:29:39.829Z,35.00
2022-07-28T17:32:25.984Z,35.00
2022-07-28T17:35:34.477Z,34.70
2022-07-28T17:38:21.659Z,34.60
2022-07-28T17:41:09.103Z,34.80
2022-07-28T17:43:55.403Z,35.00
2022-07-28T17:46:41.714Z,34.90
2022-07-28T17:49:29.220Z,34.40
2022-07-28T17:52:15.454Z,33.90
2022-07-28T17:55:19.927Z,33.30
2022-07-28T17:58:12.923Z,32.60
2022-07-28T18:01:10.598Z,31.40
2022-07-28T18:04:00.711Z,30.20
2022-07-28T18:06:47.476Z,29.20
2022-07-28T18:09:33.689Z,28.30
2022-07-28T18:12:20.575Z,27.50
2022-07-28T18:15:07.548Z,26.80
2022-07-28T18:17:56.047Z,26.20
2022-07-28T18:20:43.476Z,25.70
2022-07-28T18:23:30.401Z,25.30
2022-07-28T18:26:16.479Z,25.00
2022-07-28T18:29:02.476Z,24.60
2022-07-28T18:31:50.935Z,24.40
2022-07-28T18:34:36.938Z,24.10
2022-07-28T18:37:23.176Z,23.80
2022-07-28T18:40:10.511Z,23.60
2022-07-28T18:42:57.670Z,23.30
2022-07-28T18:45:44.376Z,23.10
2022-07-28T18:48:30.295Z,22.80
2022-07-28T18:51:16.403Z,22.60
2022-07-28T18:54:02.314Z,22.40
2022-07-28T18:56:48.611Z,22.20
2022-07-28T18:59:35.584Z,22.00
2022-07-28T19:02:26.379Z,21.80
2022-07-28T19:05:14.242Z,21.60
2022-07-28T19:08:00.422Z,21.40
2022-07-28T19:10:47.629Z,21.30
2022-07-28T19:13:36.782Z,21.20
2022-07-28T19:16:22.789Z,21.20
2022-07-28T19:19:08.926Z,21.10
2022-07-28T19:21:54.975Z,20.90
2022-07-28T19:24:41.129Z,20.80
2022-07-28T19:27:27.150Z,20.70
2022-07-28T19:30:17.275Z,20.60
2022-07-28T19:33:03.909Z,20.50
2022-07-28T19:35:50.019Z,20.40
2022-07-28T19:38:36.424Z,20.30
2022-07-28T19:41:22.875Z,20.10
2022-07-28T19:44:10.628Z,20.00
2022-07-28T19:46:57.641Z,19.90
2022-07-28T19:49:44.101Z,19.80
2022-07-28T19:52:30.236Z,19.70
2022-07-28T19:55:18.016Z,19.60
2022-07-28T19:58:06.197Z,19.50
2022-07-28T20:00:53.683Z,19.40
2022-07-28T20:04:01.128Z,19.30
2022-07-28T20:06:54.861Z,19.20
2022-07-28T20:09:41.652Z,19.10
2022-07-28T20:12:32.790Z,19.00
2022-07-28T20:15:22.760Z,18.90
2022-07-28T20:18:08.872Z,18.80
2022-07-28T20:20:54.765Z,18.70
2022-07-28T20:23:42.362Z,18.70
2022-07-28T20:26:28.530Z,18.60
2022-07-28T20:29:14.832Z,18.50
2022-07-28T20:32:01.109Z,18.50
2022-07-28T20:34:47.241Z,18.40
2022-07-28T20:37:35.859Z,18.30
2022-07-28T20:40:23.499Z,18.30
2022-07-28T20:43:09.931Z,18.20
2022-07-28T20:45:55.920Z,18.20
2022-07-28T20:48:42.731Z,18.10
2022-07-28T20:51:28.891Z,18.10
2022-07-28T20:54:15.645Z,18.00
2022-07-28T20:57:02.434Z,18.00
2022-07-28T20:59:51.292Z,18.00
2022-07-28T21:02:38.073Z,17.90
2022-07-28T21:05:26.895Z,17.90
2022-07-28T21:08:22.416Z,17.80
2022-07-28T21:11:08.844Z,17.80
2022-07-28T21:13:55.697Z,17.80
2022-07-28T21:16:41.889Z,17.70
2022-07-28T21:19:27.998Z,17.70
2022-07-28T21:22:14.160Z,17.60
2022-07-28T21:25:00.165Z,17.50
2022-07-28T21:28:04.965Z,17.50
2022-07-28T21:30:50.918Z,17.40
2022-07-28T21:33:36.972Z,17.40
2022-07-28T21:36:23.314Z,17.40
2022-07-28T21:39:10.546Z,17.30
2022-07-28T21:41:56.764Z,17.30
2022-07-28T21:44:45.470Z,17.30
2022-07-28T21:47:34.320Z,17.30
2022-07-28T21:50:22.910Z,17.30
2022-07-28T21:53:12.820Z,17.30
2022-07-28T21:56:01.685Z,17.30
2022-07-28T21:58:47.635Z,17.30
2022-07-28T22:01:33.878Z,17.30
2022-07-28T22:04:20.715Z,17.20
2022-07-28T22:07:07.160Z,17.20
2022-07-28T22:09:53.366Z,17.20
2022-07-28T22:12:40.677Z,17.10
2022-07-28T22:15:26.994Z,17.10
2022-07-28T22:18:16.813Z,17.00
2022-07-28T22:21:03.789Z,17.00
2022-07-28T22:23:49.717Z,16.90
2022-07-28T22:26:35.785Z,16.90
2022-07-28T22:29:22.076Z,16.80
2022-07-28T22:32:08.307Z,16.80
2022-07-28T22:34:54.589Z,16.70
2022-07-28T22:37:40.718Z,16.70
2022-07-28T22:40:26.611Z,16.70
2022-07-28T22:43:13.331Z,16.70
2022-07-28T22:45:59.620Z,16.60
2022-07-28T22:48:46.192Z,16.60
2022-07-28T22:51:32.526Z,16.60
2022-07-28T22:54:18.671Z,16.60
2022-07-28T22:57:07.233Z,16.50
2022-07-28T22:59:53.955Z,16.50
2022-07-28T23:02:40.004Z,16.40
2022-07-28T23:05:26.809Z,16.40
2022-07-28T23:08:13.105Z,16.40
2022-07-28T23:10:59.239Z,16.40
2022-07-28T23:13:45.289Z,16.40
2022-07-28T23:16:31.531Z,16.30
2022-07-28T23:19:17.841Z,16.30
2022-07-28T23:22:03.914Z,16.30
2022-07-28T23:24:50.048Z,16.20
2022-07-28T23:27:35.901Z,16.20
2022-07-28T23:30:22.068Z,16.20
2022-07-28T23:33:08.901Z,16.20
2022-07-28T23:36:01.913Z,16.20
2022-07-28T23:38:47.813Z,16.10
2022-07-28T23:41:33.722Z,16.10
2022-07-28T23:44:20.024Z,16.10
2022-07-28T23:47:06.657Z,16.00
2022-07-28T23:49:53.013Z,16.00
2022-07-28T23:52:39.206Z,16.00
2022-07-28T23:55:25.319Z,15.90
2022-07-28T23:58:11.371Z,15.80
